sensor_id;sensor_type;location;lat;lon;timestamp;pressure;altitude;pressure_sealevel;temperature;humidity
21574;BME280;10948;48.706;9.258;2023-08-31T00:01:02;97248.56;;;15.14;100.00
21574;BME280;10948;48.706;9.258;2023-08-31T00:03:31;97249.09;;;15.08;100.00
21574;BME280;10948;48.706;9.258;2023-08-31T00:05:56;97245.81;;;15.15;100.00
21574;BME280;10948;48.706;9.258;2023-08-31T00:08:21;97252.59;;;15.18;100.00
21574;BME280;10948;48.706;9.258;2023-08-31T00:10:54;97259.75;;;15.16;100.00
21574;BME280;10948;48.706;9.258;2023-08-31T00:13:19;97251.91;;;15.16;100.00
21574;BME280;10948;48.706;9.258;2023-08-31T00:15:46;97259.53;;;15.28;100.00
21574;BME280;10948;48.706;9.258;2023-08-31T00:18:11;97253.72;;;15.25;100.00
21574;BME280;10948;48.706;9.258;2023-08-31T00:20:37;97242.78;;;15.20;100.00
21574;BME280;10948;48.706;9.258;2023-08-31T00:23:03;97245.53;;;15.09;100.00
21574;BME280;10948;48.706;9.258;2023-08-31T00:25:28;97251.38;;;15.22;100.00
21574;BME280;10948;48.706;9.258;2023-08-31T00:27:53;97251.38;;;15.22;100.00
21574;BME280;10948;48.706;9.258;2023-08-31T00:30:19;97249.53;;;15.13;100.00
21574;BME280;10948;48.706;9.258;2023-08-31T00:32:45;97251.06;;;15.15;100.00
21574;BME280;10948;48.706;9.258;2023-08-31T00:35:12;97262.09;;;15.19;100.00
21574;BME280;10948;48.706;9.258;2023-08-31T00:37:37;97257.72;;;15.19;100.00
21574;BME280;10948;48.706;9.258;2023-08-31T00:40:03;97264.03;;;15.17;100.00
21574;BME280;10948;48.706;9.258;2023-08-31T00:42:29;97269.81;;;15.11;100.00
21574;BME280;10948;48.706;9.258;2023-08-31T00:44:55;97269.81;;;15.11;100.00
21574;BME280;10948;48.706;9.258;2023-08-31T00:47:20;97265.09;;;15.05;100.00
21574;BME280;10948;48.706;9.258;2023-08-31T00:49:45;97265.88;;;14.96;100.00
21574;BME280;10948;48.706;9.258;2023-08-31T00:52:11;97262.31;;;14.97;100.00
21574;BME280;10948;48.706;9.258;2023-08-31T00:54:37;97261.78;;;15.03;100.00
21574;BME280;10948;48.706;9.258;2023-08-31T00:57:02;97264.13;;;15.06;100.00
21574;BME280;10948;48.706;9.258;2023-08-31T00:59:28;97269.72;;;14.92;100.00
21574;BME280;10948;48.706;9.258;2023-08-31T01:04:33;97274.34;;;14.79;100.00
21574;BME280;10948;48.706;9.258;2023-08-31T01:09:36;97276.03;;;14.59;100.00
21574;BME280;10948;48.706;9.258;2023-08-31T01:12:06;97271.94;;;14.66;100.00
21574;BME280;10948;48.706;9.258;2023-08-31T01:14:37;97264.00;;;14.57;100.00
21574;BME280;10948;48.706;9.258;2023-08-31T01:17:04;97265.66;;;14.58;100.00
21574;BME280;10948;48.706;9.258;2023-08-31T01:22:11;97260.75;;;14.44;100.00
21574;BME280;10948;48.706;9.258;2023-08-31T01:24:38;97266.56;;;14.27;100.00
21574;BME280;10948;48.706;9.258;2023-08-31T01:27:04;97271.81;;;14.16;100.00
21574;BME280;10948;48.706;9.258;2023-08-31T01:29:30;97267.50;;;14.26;100.00
21574;BME280;10948;48.706;9.258;2023-08-31T01:31:55;97277.09;;;14.05;100.00
21574;BME280;10948;48.706;9.258;2023-08-31T01:34:33;97280.59;;;14.15;100.00
21574;BME280;10948;48.706;9.258;2023-08-31T01:37:00;97277.06;;;14.16;100.00
21574;BME280;10948;48.706;9.258;2023-08-31T01:39:29;97280.91;;;14.01;100.00
21574;BME280;10948;48.706;9.258;2023-08-31T01:41:58;97283.78;;;13.98;100.00
21574;BME280;10948;48.706;9.258;2023-08-31T01:44:25;97285.91;;;14.04;100.00
21574;BME280;10948;48.706;9.258;2023-08-31T01:46:52;97289.72;;;14.00;100.00
21574;BME280;10948;48.706;9.258;2023-08-31T01:49:19;97289.81;;;13.98;100.00
21574;BME280;10948;48.706;9.258;2023-08-31T01:51:44;97295.22;;;13.97;100.00
21574;BME280;10948;48.706;9.258;2023-08-31T01:54:09;97302.56;;;14.03;100.00
21574;BME280;10948;48.706;9.258;2023-08-31T01:56:34;97297.09;;;13.95;100.00
21574;BME280;10948;48.706;9.258;2023-08-31T01:59:00;97294.75;;;13.92;100.00
21574;BME280;10948;48.706;9.258;2023-08-31T02:01:25;97297.09;;;13.95;100.00
21574;BME280;10948;48.706;9.258;2023-08-31T02:03:50;97294.00;;;14.01;100.00
21574;BME280;10948;48.706;9.258;2023-08-31T02:06:16;97290.34;;;13.92;100.00
21574;BME280;10948;48.706;9.258;2023-08-31T02:08:41;97290.88;;;14.07;100.00
21574;BME280;10948;48.706;9.258;2023-08-31T02:11:08;97295.16;;;14.08;100.00
21574;BME280;10948;48.706;9.258;2023-08-31T02:13:34;97288.25;;;14.07;100.00
21574;BME280;10948;48.706;9.258;2023-08-31T02:15:59;97286.72;;;14.04;100.00
21574;BME280;10948;48.706;9.258;2023-08-31T02:18:24;97293.50;;;14.07;100.00
21574;BME280;10948;48.706;9.258;2023-08-31T02:20:51;97299.38;;;13.99;100.00
21574;BME280;10948;48.706;9.258;2023-08-31T02:23:17;97305.03;;;14.04;100.00
21574;BME280;10948;48.706;9.258;2023-08-31T02:25:42;97301.59;;;14.04;100.00
21574;BME280;10948;48.706;9.258;2023-08-31T02:28:07;97295.91;;;13.99;100.00
21574;BME280;10948;48.706;9.258;2023-08-31T02:30:32;97301.84;;;14.01;100.00
21574;BME280;10948;48.706;9.258;2023-08-31T02:32:58;97304.81;;;13.96;100.00
21574;BME280;10948;48.706;9.258;2023-08-31T02:35:23;97314.97;;;13.90;100.00
21574;BME280;10948;48.706;9.258;2023-08-31T02:37:48;97315.88;;;14.00;100.00
21574;BME280;10948;48.706;9.258;2023-08-31T02:40:13;97314.91;;;14.01;100.00
21574;BME280;10948;48.706;9.258;2023-08-31T02:42:39;97315.66;;;14.03;100.00
21574;BME280;10948;48.706;9.258;2023-08-31T02:45:05;97307.66;;;14.04;100.00
21574;BME280;10948;48.706;9.258;2023-08-31T02:47:30;97312.19;;;14.02;100.00
21574;BME280;10948;48.706;9.258;2023-08-31T02:49:55;97313.25;;;14.00;100.00
21574;BME280;10948;48.706;9.258;2023-08-31T02:52:21;97312.88;;;14.04;100.00
21574;BME280;10948;48.706;9.258;2023-08-31T02:54:46;97312.78;;;13.95;100.00
21574;BME280;10948;48.706;9.258;2023-08-31T02:57:12;97316.28;;;13.84;100.00
21574;BME280;10948;48.706;9.258;2023-08-31T02:59:37;97318.53;;;13.89;100.00
21574;BME280;10948;48.706;9.258;2023-08-31T03:02:02;97313.06;;;13.92;100.00
21574;BME280;10948;48.706;9.258;2023-08-31T03:04:28;97318.59;;;13.98;100.00
21574;BME280;10948;48.706;9.258;2023-08-31T03:06:53;97316.44;;;13.72;100.00
21574;BME280;10948;48.706;9.258;2023-08-31T03:09:18;97321.41;;;13.75;100.00
21574;BME280;10948;48.706;9.258;2023-08-31T03:11:45;97327.22;;;13.78;100.00
21574;BME280;10948;48.706;9.258;2023-08-31T03:14:10;97327.81;;;13.82;100.00
21574;BME280;10948;48.706;9.258;2023-08-31T03:16:35;97329.03;;;13.78;100.00
21574;BME280;10948;48.706;9.258;2023-08-31T03:19:01;97326.63;;;13.75;100.00
21574;BME280;10948;48.706;9.258;2023-08-31T03:21:26;97336.50;;;13.71;100.00
21574;BME280;10948;48.706;9.258;2023-08-31T03:23:51;97339.28;;;13.70;100.00
21574;BME280;10948;48.706;9.258;2023-08-31T03:26:16;97340.44;;;13.66;100.00
21574;BME280;10948;48.706;9.258;2023-08-31T03:28:41;97328.81;;;13.70;100.00
21574;BME280;10948;48.706;9.258;2023-08-31T03:31:07;97326.88;;;13.83;100.00
21574;BME280;10948;48.706;9.258;2023-08-31T03:33:32;97326.06;;;13.71;100.00
21574;BME280;10948;48.706;9.258;2023-08-31T03:36:00;97336.66;;;13.59;100.00
21574;BME280;10948;48.706;9.258;2023-08-31T03:38:26;97339.38;;;13.68;100.00
21574;BME280;10948;48.706;9.258;2023-08-31T03:40:54;97328.56;;;13.73;100.00
21574;BME280;10948;48.706;9.258;2023-08-31T03:43:22;97340.44;;;13.55;100.00
21574;BME280;10948;48.706;9.258;2023-08-31T03:45:47;97335.34;;;13.64;100.00
21574;BME280;10948;48.706;9.258;2023-08-31T03:48:13;97339.00;;;13.62;100.00
21574;BME280;10948;48.706;9.258;2023-08-31T03:50:38;97342.97;;;13.56;100.00
21574;BME280;10948;48.706;9.258;2023-08-31T03:53:03;97346.41;;;13.57;100.00
21574;BME280;10948;48.706;9.258;2023-08-31T03:55:28;97351.16;;;13.52;100.00
21574;BME280;10948;48.706;9.258;2023-08-31T03:57:54;97353.19;;;13.59;100.00
21574;BME280;10948;48.706;9.258;2023-08-31T04:00:19;97357.31;;;13.62;100.00
21574;BME280;10948;48.706;9.258;2023-08-31T04:02:44;97363.50;;;13.61;100.00
21574;BME280;10948;48.706;9.258;2023-08-31T04:05:10;97366.84;;;13.63;100.00
21574;BME280;10948;48.706;9.258;2023-08-31T04:07:35;97369.47;;;13.63;100.00
21574;BME280;10948;48.706;9.258;2023-08-31T04:10:00;97370.16;;;13.54;100.00
21574;BME280;10948;48.706;9.258;2023-08-31T04:12:26;97367.78;;;13.62;100.00
21574;BME280;10948;48.706;9.258;2023-08-31T04:14:51;97361.47;;;13.64;100.00
21574;BME280;10948;48.706;9.258;2023-08-31T04:17:16;97356.88;;;13.57;100.00
21574;BME280;10948;48.706;9.258;2023-08-31T04:19:41;97365.06;;;13.63;100.00
21574;BME280;10948;48.706;9.258;2023-08-31T04:22:06;97366.59;;;13.55;100.00
21574;BME280;10948;48.706;9.258;2023-08-31T04:24:32;97371.84;;;13.77;100.00
21574;BME280;10948;48.706;9.258;2023-08-31T04:26:58;97373.13;;;13.71;100.00
21574;BME280;10948;48.706;9.258;2023-08-31T04:29:23;97372.09;;;13.63;100.00
21574;BME280;10948;48.706;9.258;2023-08-31T04:31:48;97369.47;;;13.63;100.00
21574;BME280;10948;48.706;9.258;2023-08-31T04:34:14;97384.69;;;13.58;100.00
21574;BME280;10948;48.706;9.258;2023-08-31T04:36:39;97375.28;;;13.55;100.00
21574;BME280;10948;48.706;9.258;2023-08-31T04:39:04;97379.44;;;13.47;100.00
21574;BME280;10948;48.706;9.258;2023-08-31T04:41:30;97371.50;;;13.48;100.00
21574;BME280;10948;48.706;9.258;2023-08-31T04:43:55;97383.25;;;13.43;100.00
21574;BME280;10948;48.706;9.258;2023-08-31T04:46:20;97385.28;;;13.39;100.00
21574;BME280;10948;48.706;9.258;2023-08-31T04:48:45;97395.13;;;13.47;100.00
21574;BME280;10948;48.706;9.258;2023-08-31T04:53:54;97399.16;;;13.62;100.00
21574;BME280;10948;48.706;9.258;2023-08-31T04:56:19;97386.47;;;13.46;100.00
21574;BME280;10948;48.706;9.258;2023-08-31T04:58:45;97400.84;;;13.63;100.00
21574;BME280;10948;48.706;9.258;2023-08-31T05:01:10;97404.91;;;13.56;100.00
21574;BME280;10948;48.706;9.258;2023-08-31T05:03:35;97397.50;;;13.61;100.00
21574;BME280;10948;48.706;9.258;2023-08-31T05:06:00;97401.31;;;13.57;100.00
21574;BME280;10948;48.706;9.258;2023-08-31T05:08:25;97401.53;;;13.54;100.00
21574;BME280;10948;48.706;9.258;2023-08-31T05:10:50;97404.53;;;13.49;100.00
21574;BME280;10948;48.706;9.258;2023-08-31T05:13:16;97406.31;;;13.60;100.00
21574;BME280;10948;48.706;9.258;2023-08-31T05:15:41;97415.59;;;13.64;100.00
21574;BME280;10948;48.706;9.258;2023-08-31T05:18:06;97422.09;;;13.69;100.00
21574;BME280;10948;48.706;9.258;2023-08-31T05:20:33;97416.88;;;13.69;100.00
21574;BME280;10948;48.706;9.258;2023-08-31T05:22:59;97425.78;;;13.78;100.00
21574;BME280;10948;48.706;9.258;2023-08-31T05:25:24;97421.38;;;13.78;100.00
21574;BME280;10948;48.706;9.258;2023-08-31T05:27:49;97422.94;;;13.92;100.00
21574;BME280;10948;48.706;9.258;2023-08-31T05:30:14;97422.09;;;13.91;100.00
21574;BME280;10948;48.706;9.258;2023-08-31T05:32:40;97431.47;;;13.94;100.00
21574;BME280;10948;48.706;9.258;2023-08-31T05:35:05;97432.44;;;14.04;100.00
21574;BME280;10948;48.706;9.258;2023-08-31T05:37:32;97434.31;;;14.02;100.00
21574;BME280;10948;48.706;9.258;2023-08-31T05:39:57;97434.31;;;14.02;100.00
21574;BME280;10948;48.706;9.258;2023-08-31T05:42:23;97428.72;;;14.17;100.00
21574;BME280;10948;48.706;9.258;2023-08-31T05:44:48;97429.31;;;14.21;100.00
21574;BME280;10948;48.706;9.258;2023-08-31T05:47:14;97440.25;;;14.15;100.00
21574;BME280;10948;48.706;9.258;2023-08-31T05:49:39;97433.38;;;14.25;100.00
21574;BME280;10948;48.706;9.258;2023-08-31T05:52:04;97441.47;;;14.22;100.00
21574;BME280;10948;48.706;9.258;2023-08-31T05:54:30;97444.53;;;14.27;100.00
21574;BME280;10948;48.706;9.258;2023-08-31T05:56:56;97445.03;;;14.21;100.00
21574;BME280;10948;48.706;9.258;2023-08-31T05:59:22;97450.25;;;14.21;100.00
21574;BME280;10948;48.706;9.258;2023-08-31T06:01:48;97455.88;;;14.27;100.00
21574;BME280;10948;48.706;9.258;2023-08-31T06:04:14;97457.63;;;14.38;100.00
21574;BME280;10948;48.706;9.258;2023-08-31T06:06:39;97456.88;;;14.47;100.00
21574;BME280;10948;48.706;9.258;2023-08-31T06:09:04;97453.56;;;14.45;100.00
21574;BME280;10948;48.706;9.258;2023-08-31T06:11:31;97448.50;;;14.64;100.00
21574;BME280;10948;48.706;9.258;2023-08-31T06:13:57;97457.63;;;14.69;100.00
21574;BME280;10948;48.706;9.258;2023-08-31T06:16:22;97455.13;;;14.68;100.00
21574;BME280;10948;48.706;9.258;2023-08-31T06:18:49;97463.94;;;14.67;100.00
21574;BME280;10948;48.706;9.258;2023-08-31T06:21:14;97461.31;;;14.78;100.00
21574;BME280;10948;48.706;9.258;2023-08-31T06:23:39;97464.28;;;15.05;100.00
21574;BME280;10948;48.706;9.258;2023-08-31T06:26:05;97461.81;;;15.44;100.00
21574;BME280;10948;48.706;9.258;2023-08-31T06:28:30;97463.56;;;15.55;100.00
21574;BME280;10948;48.706;9.258;2023-08-31T06:30:55;97471.72;;;15.41;100.00
21574;BME280;10948;48.706;9.258;2023-08-31T06:33:20;97473.59;;;15.80;100.00
21574;BME280;10948;48.706;9.258;2023-08-31T06:35:47;97465.22;;;15.56;100.00
21574;BME280;10948;48.706;9.258;2023-08-31T06:38:16;97474.22;;;15.42;100.00
21574;BME280;10948;48.706;9.258;2023-08-31T06:40:42;97470.06;;;15.40;100.00
21574;BME280;10948;48.706;9.258;2023-08-31T06:43:08;97467.72;;;15.26;100.00
21574;BME280;10948;48.706;9.258;2023-08-31T06:45:33;97479.97;;;15.36;100.00
21574;BME280;10948;48.706;9.258;2023-08-31T06:47:59;97480.38;;;15.52;100.00
21574;BME280;10948;48.706;9.258;2023-08-31T06:50:24;97483.22;;;15.70;100.00
21574;BME280;10948;48.706;9.258;2023-08-31T06:52:50;97491.38;;;15.97;100.00
21574;BME280;10948;48.706;9.258;2023-08-31T06:55:15;97495.22;;;15.93;100.00
21574;BME280;10948;48.706;9.258;2023-08-31T06:57:41;97495.94;;;16.04;100.00
21574;BME280;10948;48.706;9.258;2023-08-31T07:00:07;97506.88;;;16.09;100.00
21574;BME280;10948;48.706;9.258;2023-08-31T07:02:33;97500.81;;;16.09;100.00
21574;BME280;10948;48.706;9.258;2023-08-31T07:04:59;97499.09;;;16.68;100.00
21574;BME280;10948;48.706;9.258;2023-08-31T07:07:25;97494.16;;;17.21;100.00
21574;BME280;10948;48.706;9.258;2023-08-31T07:09:50;97501.06;;;17.51;100.00
21574;BME280;10948;48.706;9.258;2023-08-31T07:12:16;97487.09;;;23.10;85.57
21574;BME280;10948;48.706;9.258;2023-08-31T07:14:41;97484.41;;;24.00;74.16
21574;BME280;10948;48.706;9.258;2023-08-31T07:17:06;97498.25;;;24.82;69.11
21574;BME280;10948;48.706;9.258;2023-08-31T07:19:34;97505.59;;;24.80;68.22
21574;BME280;10948;48.706;9.258;2023-08-31T07:22:00;97502.31;;;24.64;67.64
21574;BME280;10948;48.706;9.258;2023-08-31T07:24:25;97506.47;;;22.03;78.61
21574;BME280;10948;48.706;9.258;2023-08-31T07:26:51;97513.09;;;21.59;84.71
21574;BME280;10948;48.706;9.258;2023-08-31T07:29:16;97512.88;;;20.47;89.85
21574;BME280;10948;48.706;9.258;2023-08-31T07:31:42;97510.03;;;20.07;91.96
21574;BME280;10948;48.706;9.258;2023-08-31T07:34:07;97517.22;;;19.54;91.83
21574;BME280;10948;48.706;9.258;2023-08-31T07:36:32;97525.00;;;20.66;88.34
21574;BME280;10948;48.706;9.258;2023-08-31T07:38:58;97527.63;;;21.07;83.01
21574;BME280;10948;48.706;9.258;2023-08-31T07:41:23;97525.34;;;21.28;80.98
21574;BME280;10948;48.706;9.258;2023-08-31T07:43:48;97529.34;;;21.88;81.57
21574;BME280;10948;48.706;9.258;2023-08-31T07:46:17;97531.34;;;21.86;80.62
21574;BME280;10948;48.706;9.258;2023-08-31T07:48:42;97528.84;;;22.63;71.96
21574;BME280;10948;48.706;9.258;2023-08-31T07:51:08;97528.41;;;23.88;67.72
21574;BME280;10948;48.706;9.258;2023-08-31T07:53:33;97535.34;;;25.97;61.31
21574;BME280;10948;48.706;9.258;2023-08-31T07:55:58;97530.78;;;26.52;58.17
21574;BME280;10948;48.706;9.258;2023-08-31T07:58:23;97537.75;;;27.28;56.55
21574;BME280;10948;48.706;9.258;2023-08-31T08:00:51;97528.22;;;27.06;53.09
21574;BME280;10948;48.706;9.258;2023-08-31T08:03:17;97527.19;;;30.08;47.59
21574;BME280;10948;48.706;9.258;2023-08-31T08:05:42;97534.56;;;30.19;46.68
21574;BME280;10948;48.706;9.258;2023-08-31T08:08:07;97532.31;;;32.00;42.40
21574;BME280;10948;48.706;9.258;2023-08-31T08:10:33;97521.22;;;31.67;44.03
21574;BME280;10948;48.706;9.258;2023-08-31T08:12:58;60905.78;;;-139.15;100.00
21574;BME280;10948;48.706;9.258;2023-08-31T08:15:24;60905.78;;;-139.15;100.00
21574;BME280;10948;48.706;9.258;2023-08-31T08:17:49;60905.78;;;-139.15;100.00
21574;BME280;10948;48.706;9.258;2023-08-31T08:20:14;97521.22;;;31.67;44.03
21574;BME280;10948;48.706;9.258;2023-08-31T08:22:40;97529.09;;;32.44;39.63
21574;BME280;10948;48.706;9.258;2023-08-31T08:25:05;97540.09;;;34.12;38.64
21574;BME280;10948;48.706;9.258;2023-08-31T08:27:31;97537.69;;;33.15;38.79
21574;BME280;10948;48.706;9.258;2023-08-31T08:29:57;97543.34;;;34.14;38.56
21574;BME280;10948;48.706;9.258;2023-08-31T08:32:23;97534.50;;;32.44;39.49
21574;BME280;10948;48.706;9.258;2023-08-31T08:34:48;97543.53;;;34.57;38.59
21574;BME280;10948;48.706;9.258;2023-08-31T08:37:13;97537.25;;;30.79;38.97
21574;BME280;10948;48.706;9.258;2023-08-31T08:39:38;97546.91;;;23.37;53.25
21574;BME280;10948;48.706;9.258;2023-08-31T08:42:04;97544.94;;;23.00;54.45
21574;BME280;10948;48.706;9.258;2023-08-31T08:44:32;97541.78;;;22.66;54.97
21574;BME280;10948;48.706;9.258;2023-08-31T08:46:58;97545.94;;;22.91;53.60
21574;BME280;10948;48.706;9.258;2023-08-31T08:49:24;97541.56;;;22.05;55.58
21574;BME280;10948;48.706;9.258;2023-08-31T08:51:51;97552.47;;;22.18;59.27
21574;BME280;10948;48.706;9.258;2023-08-31T08:54:17;97551.31;;;24.26;55.10
21574;BME280;10948;48.706;9.258;2023-08-31T08:56:43;97555.72;;;22.52;58.40
21574;BME280;10948;48.706;9.258;2023-08-31T08:59:08;97541.31;;;22.93;54.46
21574;BME280;10948;48.706;9.258;2023-08-31T09:01:37;97540.25;;;21.45;60.12
21574;BME280;10948;48.706;9.258;2023-08-31T09:04:03;97551.59;;;20.64;61.06
21574;BME280;10948;48.706;9.258;2023-08-31T09:06:28;97547.81;;;21.16;62.15
21574;BME280;10948;48.706;9.258;2023-08-31T09:08:55;97550.25;;;21.02;63.65
21574;BME280;10948;48.706;9.258;2023-08-31T09:11:24;97560.28;;;20.82;65.34
21574;BME280;10948;48.706;9.258;2023-08-31T09:13:50;97560.69;;;20.95;66.13
21574;BME280;10948;48.706;9.258;2023-08-31T09:16:23;97567.78;;;20.61;67.19
21574;BME280;10948;48.706;9.258;2023-08-31T09:18:49;97566.41;;;20.49;62.03
21574;BME280;10948;48.706;9.258;2023-08-31T09:21:14;97575.63;;;20.45;62.28
21574;BME280;10948;48.706;9.258;2023-08-31T09:23:39;97568.34;;;20.81;61.93
21574;BME280;10948;48.706;9.258;2023-08-31T09:26:04;97565.34;;;20.76;61.73
21574;BME280;10948;48.706;9.258;2023-08-31T09:28:30;97569.56;;;21.52;59.16
21574;BME280;10948;48.706;9.258;2023-08-31T09:31:05;97570.25;;;20.88;58.22
21574;BME280;10948;48.706;9.258;2023-08-31T09:33:31;97573.25;;;20.68;60.71
21574;BME280;10948;48.706;9.258;2023-08-31T09:35:57;97571.66;;;21.24;59.63
21574;BME280;10948;48.706;9.258;2023-08-31T09:38:24;97568.56;;;23.71;53.97
21574;BME280;10948;48.706;9.258;2023-08-31T09:40:50;97566.72;;;22.33;55.74
21574;BME280;10948;48.706;9.258;2023-08-31T09:43:18;97560.28;;;24.25;52.54
21574;BME280;10948;48.706;9.258;2023-08-31T09:45:44;97557.25;;;25.71;49.41
21574;BME280;10948;48.706;9.258;2023-08-31T09:48:10;97563.00;;;25.33;50.31
21574;BME280;10948;48.706;9.258;2023-08-31T09:50:35;97573.81;;;22.95;51.56
21574;BME280;10948;48.706;9.258;2023-08-31T09:53:02;97573.81;;;22.95;54.45
21574;BME280;10948;48.706;9.258;2023-08-31T09:55:29;97573.94;;;25.80;49.19
21574;BME280;10948;48.706;9.258;2023-08-31T09:57:56;97585.25;;;23.04;53.97
21574;BME280;10948;48.706;9.258;2023-08-31T10:00:21;97577.53;;;22.08;56.18
21574;BME280;10948;48.706;9.258;2023-08-31T10:02:46;97584.00;;;21.81;56.37
21574;BME280;10948;48.706;9.258;2023-08-31T10:05:13;97582.31;;;21.64;55.78
21574;BME280;10948;48.706;9.258;2023-08-31T10:07:38;97587.91;;;21.37;54.74
21574;BME280;10948;48.706;9.258;2023-08-31T10:10:04;97579.78;;;21.23;55.44
21574;BME280;10948;48.706;9.258;2023-08-31T10:12:30;97581.66;;;22.81;50.84
21574;BME280;10948;48.706;9.258;2023-08-31T10:14:55;97583.03;;;22.77;52.00
21574;BME280;10948;48.706;9.258;2023-08-31T10:17:22;97581.66;;;22.26;53.97
21574;BME280;10948;48.706;9.258;2023-08-31T10:19:47;97579.69;;;21.96;52.33
21574;BME280;10948;48.706;9.258;2023-08-31T10:22:13;97584.31;;;21.62;53.38
21574;BME280;10948;48.706;9.258;2023-08-31T10:24:57;97577.66;;;21.34;53.78
21574;BME280;10948;48.706;9.258;2023-08-31T10:27:23;97580.16;;;24.95;48.97
21574;BME280;10948;48.706;9.258;2023-08-31T10:29:49;97575.94;;;24.86;46.70
21574;BME280;10948;48.706;9.258;2023-08-31T10:32:17;97586.91;;;25.83;46.09
21574;BME280;10948;48.706;9.258;2023-08-31T10:34:43;97584.19;;;24.62;47.71
21574;BME280;10948;48.706;9.258;2023-08-31T10:37:21;97592.16;;;23.43;49.00
21574;BME280;10948;48.706;9.258;2023-08-31T10:39:47;97580.97;;;22.32;50.44
21574;BME280;10948;48.706;9.258;2023-08-31T10:42:12;97594.91;;;22.42;51.27
21574;BME280;10948;48.706;9.258;2023-08-31T10:44:38;97587.25;;;22.94;52.28
21574;BME280;10948;48.706;9.258;2023-08-31T10:47:06;97592.19;;;22.58;53.55
21574;BME280;10948;48.706;9.258;2023-08-31T10:49:32;97592.25;;;23.80;49.10
21574;BME280;10948;48.706;9.258;2023-08-31T10:52:14;97591.06;;;23.38;48.55
21574;BME280;10948;48.706;9.258;2023-08-31T10:54:39;97590.06;;;23.83;50.02
21574;BME280;10948;48.706;9.258;2023-08-31T10:57:05;97591.47;;;24.16;49.39
21574;BME280;10948;48.706;9.258;2023-08-31T11:04:59;97582.47;;;22.51;52.80
21574;BME280;10948;48.706;9.258;2023-08-31T11:07:28;97578.16;;;24.31;49.51
21574;BME280;10948;48.706;9.258;2023-08-31T11:10:06;97590.91;;;23.31;52.93
21574;BME280;10948;48.706;9.258;2023-08-31T11:12:31;97597.19;;;22.61;53.53
21574;BME280;10948;48.706;9.258;2023-08-31T11:14:56;97589.25;;;22.37;55.11
21574;BME280;10948;48.706;9.258;2023-08-31T11:17:22;97590.09;;;22.30;53.85
21574;BME280;10948;48.706;9.258;2023-08-31T11:19:47;97585.66;;;21.74;54.83
21574;BME280;10948;48.706;9.258;2023-08-31T11:22:12;97587.94;;;22.33;53.27
21574;BME280;10948;48.706;9.258;2023-08-31T11:24:38;97583.28;;;22.35;54.25
21574;BME280;10948;48.706;9.258;2023-08-31T11:27:06;97580.72;;;23.65;51.42
21574;BME280;10948;48.706;9.258;2023-08-31T11:29:32;97589.00;;;23.17;50.88
21574;BME280;10948;48.706;9.258;2023-08-31T11:31:57;97584.44;;;23.56;51.11
21574;BME280;10948;48.706;9.258;2023-08-31T11:34:25;97576.88;;;23.67;51.57
21574;BME280;10948;48.706;9.258;2023-08-31T11:36:50;97577.59;;;26.76;46.70
21574;BME280;10948;48.706;9.258;2023-08-31T11:39:17;97571.06;;;24.60;47.63
21574;BME280;10948;48.706;9.258;2023-08-31T11:41:42;97564.28;;;23.92;49.69
21574;BME280;10948;48.706;9.258;2023-08-31T11:44:08;97572.22;;;23.47;51.63
21574;BME280;10948;48.706;9.258;2023-08-31T11:46:35;97575.50;;;24.16;51.14
21574;BME280;10948;48.706;9.258;2023-08-31T11:49:00;97578.13;;;23.57;50.33
21574;BME280;10948;48.706;9.258;2023-08-31T11:51:26;97579.84;;;23.50;51.44
21574;BME280;10948;48.706;9.258;2023-08-31T11:53:54;97567.38;;;24.47;48.96
21574;BME280;10948;48.706;9.258;2023-08-31T11:56:21;97569.34;;;26.71;45.17
21574;BME280;10948;48.706;9.258;2023-08-31T11:58:46;97566.34;;;26.87;45.78
21574;BME280;10948;48.706;9.258;2023-08-31T12:01:17;97564.56;;;27.60;43.91
21574;BME280;10948;48.706;9.258;2023-08-31T12:03:43;97560.22;;;26.25;45.88
21574;BME280;10948;48.706;9.258;2023-08-31T12:06:11;97566.19;;;24.93;48.42
21574;BME280;10948;48.706;9.258;2023-08-31T12:08:39;97550.78;;;24.45;47.81
21574;BME280;10948;48.706;9.258;2023-08-31T12:11:06;97552.72;;;24.80;47.38
21574;BME280;10948;48.706;9.258;2023-08-31T12:13:31;97555.22;;;24.01;48.99
21574;BME280;10948;48.706;9.258;2023-08-31T12:15:57;97555.16;;;23.64;51.26
21574;BME280;10948;48.706;9.258;2023-08-31T12:18:22;97562.69;;;23.30;50.29
21574;BME280;10948;48.706;9.258;2023-08-31T12:20:49;97559.47;;;23.43;50.00
21574;BME280;10948;48.706;9.258;2023-08-31T12:23:16;97548.09;;;25.59;45.49
21574;BME280;10948;48.706;9.258;2023-08-31T12:25:51;97558.94;;;26.82;44.88
21574;BME280;10948;48.706;9.258;2023-08-31T12:28:17;97554.41;;;25.94;44.88
21574;BME280;10948;48.706;9.258;2023-08-31T12:30:45;97561.13;;;24.25;49.50
21574;BME280;10948;48.706;9.258;2023-08-31T12:33:11;97545.66;;;25.22;47.13
21574;BME280;10948;48.706;9.258;2023-08-31T12:35:36;97542.03;;;24.36;48.51
21574;BME280;10948;48.706;9.258;2023-08-31T12:38:01;97543.94;;;23.77;48.80
21574;BME280;10948;48.706;9.258;2023-08-31T12:40:27;97553.31;;;23.12;51.44
21574;BME280;10948;48.706;9.258;2023-08-31T12:42:52;97559.63;;;23.19;52.20
21574;BME280;10948;48.706;9.258;2023-08-31T12:45:17;97543.56;;;22.74;50.12
21574;BME280;10948;48.706;9.258;2023-08-31T12:47:42;97547.84;;;22.83;50.69
21574;BME280;10948;48.706;9.258;2023-08-31T12:50:08;97539.84;;;22.91;52.28
21574;BME280;10948;48.706;9.258;2023-08-31T12:52:33;97537.59;;;23.02;51.01
21574;BME280;10948;48.706;9.258;2023-08-31T12:54:58;97536.25;;;24.33;47.18
21574;BME280;10948;48.706;9.258;2023-08-31T12:57:23;97527.41;;;23.44;49.99
21574;BME280;10948;48.706;9.258;2023-08-31T12:59:49;97537.19;;;23.21;51.19
21574;BME280;10948;48.706;9.258;2023-08-31T13:02:14;97531.31;;;24.15;49.68
21574;BME280;10948;48.706;9.258;2023-08-31T13:04:39;97539.97;;;25.11;47.77